sensor_id;sensor_type;location;lat;lon;timestamp;pressure;altitude;pressure_sealevel;temperature;humidity
30935;BME280;51033;42.648;23.292;2023-04-09T00:00:32;94007.22;;;6.99;65.98
30935;BME280;51033;42.648;23.292;2023-04-09T00:02:57;94028.31;;;7.04;66.33
30935;BME280;51033;42.648;23.292;2023-04-09T00:05:23;94013.97;;;7.05;65.97
30935;BME280;51033;42.648;23.292;2023-04-09T00:07:48;94025.84;;;6.89;66.04
30935;BME280;51033;42.648;23.292;2023-04-09T00:10:13;94034.34;;;7.05;65.57
30935;BME280;51033;42.648;23.292;2023-04-09T00:12:39;94033.59;;;7.23;65.09
30935;BME280;51033;42.648;23.292;2023-04-09T00:15:05;94021.13;;;7.05;65.76
30935;BME280;51033;42.648;23.292;2023-04-09T00:17:31;94001.84;;;7.04;64.84
30935;BME280;51033;42.648;23.292;2023-04-09T00:19:56;94040.34;;;6.92;66.04
30935;BME280;51033;42.648;23.292;2023-04-09T00:22:21;94041.47;;;6.43;68.85
30935;BME280;51033;42.648;23.292;2023-04-09T00:24:47;94024.78;;;6.66;67.67
30935;BME280;51033;42.648;23.292;2023-04-09T00:27:12;94039.41;;;6.82;67.53
30935;BME280;51033;42.648;23.292;2023-04-09T00:29:37;94035.50;;;6.99;66.62
30935;BME280;51033;42.648;23.292;2023-04-09T00:32:03;94038.72;;;7.14;66.02
30935;BME280;51033;42.648;23.292;2023-04-09T00:34:28;94043.44;;;7.36;64.80
30935;BME280;51033;42.648;23.292;2023-04-09T00:36:54;94025.59;;;7.28;64.88
30935;BME280;51033;42.648;23.292;2023-04-09T00:39:19;94030.63;;;7.24;65.50
30935;BME280;51033;42.648;23.292;2023-04-09T00:41:44;94046.47;;;7.48;65.05
30935;BME280;51033;42.648;23.292;2023-04-09T00:44:10;94038.50;;;7.48;64.45
30935;BME280;51033;42.648;23.292;2023-04-09T00:46:35;94035.63;;;7.45;64.62
30935;BME280;51033;42.648;23.292;2023-04-09T00:49:01;94040.59;;;7.33;65.03
30935;BME280;51033;42.648;23.292;2023-04-09T00:51:26;94032.13;;;6.74;66.68
30935;BME280;51033;42.648;23.292;2023-04-09T00:53:53;94030.34;;;7.07;66.17
30935;BME280;51033;42.648;23.292;2023-04-09T00:56:20;94050.31;;;7.18;65.91
30935;BME280;51033;42.648;23.292;2023-04-09T00:58:46;94032.72;;;7.09;65.94
30935;BME280;51033;42.648;23.292;2023-04-09T01:01:12;94021.72;;;7.02;66.23
30935;BME280;51033;42.648;23.292;2023-04-09T01:03:37;94045.72;;;7.24;65.96
30935;BME280;51033;42.648;23.292;2023-04-09T01:09:13;94054.25;;;7.21;65.70
30935;BME280;51033;42.648;23.292;2023-04-09T01:11:42;94053.16;;;7.22;66.13
30935;BME280;51033;42.648;23.292;2023-04-09T01:14:23;94053.03;;;7.32;65.51
30935;BME280;51033;42.648;23.292;2023-04-09T01:17:11;94052.81;;;7.28;65.04
30935;BME280;51033;42.648;23.292;2023-04-09T01:19:51;94040.53;;;7.19;65.18
30935;BME280;51033;42.648;23.292;2023-04-09T01:28:50;94036.16;;;7.28;64.26
30935;BME280;51033;42.648;23.292;2023-04-09T01:31:19;94031.00;;;7.18;64.70
30935;BME280;51033;42.648;23.292;2023-04-09T01:33:45;94060.47;;;7.30;64.98
30935;BME280;51033;42.648;23.292;2023-04-09T01:36:12;94057.25;;;7.33;64.86
30935;BME280;51033;42.648;23.292;2023-04-09T01:38:40;94050.00;;;7.20;64.87
30935;BME280;51033;42.648;23.292;2023-04-09T01:41:08;94019.13;;;6.97;65.32
30935;BME280;51033;42.648;23.292;2023-04-09T01:43:35;94059.97;;;7.28;64.70
30935;BME280;51033;42.648;23.292;2023-04-09T01:46:01;94040.94;;;7.07;65.43
30935;BME280;51033;42.648;23.292;2023-04-09T01:48:28;94052.72;;;7.15;65.07
30935;BME280;51033;42.648;23.292;2023-04-09T01:50:55;94062.53;;;7.14;65.52
30935;BME280;51033;42.648;23.292;2023-04-09T01:53:22;94054.03;;;7.17;65.26
30935;BME280;51033;42.648;23.292;2023-04-09T01:55:47;94050.31;;;7.37;63.34
30935;BME280;51033;42.648;23.292;2023-04-09T01:58:13;94056.75;;;7.31;64.01
30935;BME280;51033;42.648;23.292;2023-04-09T02:00:41;94051.44;;;7.12;64.18
30935;BME280;51033;42.648;23.292;2023-04-09T02:03:22;94061.69;;;7.19;64.41
30935;BME280;51033;42.648;23.292;2023-04-09T02:06:08;94014.31;;;6.80;64.92
30935;BME280;51033;42.648;23.292;2023-04-09T02:08:39;94038.50;;;6.92;64.86
30935;BME280;51033;42.648;23.292;2023-04-09T02:11:08;94054.41;;;6.87;65.46
30935;BME280;51033;42.648;23.292;2023-04-09T02:13:36;94043.38;;;6.80;65.57
30935;BME280;51033;42.648;23.292;2023-04-09T02:16:02;94053.03;;;6.71;66.06
30935;BME280;51033;42.648;23.292;2023-04-09T02:18:29;94052.78;;;7.10;64.41
30935;BME280;51033;42.648;23.292;2023-04-09T02:20:56;94057.75;;;7.16;63.66
30935;BME280;51033;42.648;23.292;2023-04-09T02:23:22;94053.00;;;6.95;64.40
30935;BME280;51033;42.648;23.292;2023-04-09T02:25:47;94033.53;;;6.85;64.67
30935;BME280;51033;42.648;23.292;2023-04-09T02:28:13;94040.88;;;6.94;64.19
30935;BME280;51033;42.648;23.292;2023-04-09T02:30:39;94042.56;;;6.84;63.76
30935;BME280;51033;42.648;23.292;2023-04-09T02:33:05;94055.63;;;6.95;63.59
30935;BME280;51033;42.648;23.292;2023-04-09T02:35:30;94038.50;;;6.92;63.26
30935;BME280;51033;42.648;23.292;2023-04-09T02:37:55;94049.34;;;6.91;63.18
30935;BME280;51033;42.648;23.292;2023-04-09T02:40:21;94016.81;;;6.71;62.85
30935;BME280;51033;42.648;23.292;2023-04-09T02:42:46;94033.72;;;6.70;63.68
30935;BME280;51033;42.648;23.292;2023-04-09T02:45:12;93994.13;;;6.47;63.49
30935;BME280;51033;42.648;23.292;2023-04-09T02:47:37;94023.66;;;6.72;62.84
30935;BME280;51033;42.648;23.292;2023-04-09T02:50:03;94047.84;;;6.84;62.67
30935;BME280;51033;42.648;23.292;2023-04-09T02:52:29;94048.34;;;6.86;62.71
30935;BME280;51033;42.648;23.292;2023-04-09T02:54:54;94034.69;;;6.79;62.43
30935;BME280;51033;42.648;23.292;2023-04-09T02:57:19;94014.28;;;6.61;62.62
30935;BME280;51033;42.648;23.292;2023-04-09T02:59:45;94021.09;;;6.67;62.71
30935;BME280;51033;42.648;23.292;2023-04-09T03:02:10;94011.22;;;6.54;62.64
30935;BME280;51033;42.648;23.292;2023-04-09T03:04:37;94021.22;;;6.57;62.38
30935;BME280;51033;42.648;23.292;2023-04-09T03:07:02;94026.44;;;6.62;62.08
30935;BME280;51033;42.648;23.292;2023-04-09T03:09:28;94023.13;;;6.52;61.73
30935;BME280;51033;42.648;23.292;2023-04-09T03:11:54;94014.75;;;6.45;62.19
30935;BME280;51033;42.648;23.292;2023-04-09T03:14:22;94035.59;;;6.46;62.41
30935;BME280;51033;42.648;23.292;2023-04-09T03:16:47;94037.41;;;6.51;61.99
30935;BME280;51033;42.648;23.292;2023-04-09T03:19:13;94019.38;;;6.34;62.62
30935;BME280;51033;42.648;23.292;2023-04-09T03:21:38;94015.56;;;6.21;62.48
30935;BME280;51033;42.648;23.292;2023-04-09T03:24:04;94036.28;;;6.33;62.35
30935;BME280;51033;42.648;23.292;2023-04-09T03:26:29;94009.75;;;6.19;62.32
30935;BME280;51033;42.648;23.292;2023-04-09T03:29:00;94033.59;;;6.38;62.32
30935;BME280;51033;42.648;23.292;2023-04-09T03:31:26;94013.72;;;6.17;62.49
30935;BME280;51033;42.648;23.292;2023-04-09T03:33:51;94020.63;;;6.13;62.41
30935;BME280;51033;42.648;23.292;2023-04-09T03:36:16;94026.66;;;6.18;62.59
30935;BME280;51033;42.648;23.292;2023-04-09T03:38:42;94015.84;;;6.15;62.29
30935;BME280;51033;42.648;23.292;2023-04-09T03:41:07;94011.41;;;6.10;61.84
30935;BME280;51033;42.648;23.292;2023-04-09T03:43:32;94024.09;;;6.08;62.32
30935;BME280;51033;42.648;23.292;2023-04-09T03:45:58;94017.28;;;6.02;62.05
30935;BME280;51033;42.648;23.292;2023-04-09T03:48:23;94039.31;;;6.21;61.79
30935;BME280;51033;42.648;23.292;2023-04-09T03:50:48;94033.88;;;6.08;61.56
30935;BME280;51033;42.648;23.292;2023-04-09T03:53:14;94032.59;;;6.05;61.82
30935;BME280;51033;42.648;23.292;2023-04-09T03:55:39;94052.88;;;6.10;61.90
30935;BME280;51033;42.648;23.292;2023-04-09T03:58:05;94010.25;;;5.92;61.56
30935;BME280;51033;42.648;23.292;2023-04-09T04:00:30;94038.19;;;5.98;61.71
30935;BME280;51033;42.648;23.292;2023-04-09T04:02:56;94032.63;;;6.00;61.59
30935;BME280;51033;42.648;23.292;2023-04-09T04:05:22;94032.41;;;5.96;61.45
30935;BME280;51033;42.648;23.292;2023-04-09T04:07:49;94031.06;;;5.99;61.20
30935;BME280;51033;42.648;23.292;2023-04-09T04:10:14;94048.25;;;5.96;61.71
30935;BME280;51033;42.648;23.292;2023-04-09T04:12:40;94047.47;;;5.96;61.95
30935;BME280;51033;42.648;23.292;2023-04-09T04:15:06;94009.19;;;5.65;62.00
30935;BME280;51033;42.648;23.292;2023-04-09T04:17:31;94042.81;;;5.83;62.12
30935;BME280;51033;42.648;23.292;2023-04-09T04:19:56;94038.66;;;5.77;62.64
30935;BME280;51033;42.648;23.292;2023-04-09T04:22:23;94040.78;;;5.75;62.43
30935;BME280;51033;42.648;23.292;2023-04-09T04:24:48;94050.09;;;5.96;62.72
30935;BME280;51033;42.648;23.292;2023-04-09T04:27:14;94039.84;;;5.89;62.68
30935;BME280;51033;42.648;23.292;2023-04-09T04:29:39;94044.34;;;5.89;62.74
30935;BME280;51033;42.648;23.292;2023-04-09T04:32:05;94054.06;;;5.93;62.73
30935;BME280;51033;42.648;23.292;2023-04-09T04:34:30;94043.50;;;5.93;62.80
30935;BME280;51033;42.648;23.292;2023-04-09T04:36:55;94026.66;;;5.89;62.92
30935;BME280;51033;42.648;23.292;2023-04-09T04:39:21;94041.84;;;6.02;62.95
30935;BME280;51033;42.648;23.292;2023-04-09T04:41:46;94038.28;;;5.88;63.58
30935;BME280;51033;42.648;23.292;2023-04-09T04:44:12;94043.97;;;6.00;63.76
30935;BME280;51033;42.648;23.292;2023-04-09T04:46:37;94058.16;;;6.10;63.99
30935;BME280;51033;42.648;23.292;2023-04-09T04:49:02;94037.34;;;6.03;64.54
30935;BME280;51033;42.648;23.292;2023-04-09T04:51:30;94047.25;;;6.21;64.60
30935;BME280;51033;42.648;23.292;2023-04-09T04:53:55;94044.84;;;6.25;64.72
30935;BME280;51033;42.648;23.292;2023-04-09T04:56:21;94043.81;;;6.21;65.54
30935;BME280;51033;42.648;23.292;2023-04-09T04:58:46;94061.78;;;6.19;65.78
30935;BME280;51033;42.648;23.292;2023-04-09T05:01:12;94018.00;;;5.84;66.62
30935;BME280;51033;42.648;23.292;2023-04-09T05:03:37;94055.56;;;6.05;67.64
30935;BME280;51033;42.648;23.292;2023-04-09T05:06:02;94038.84;;;5.85;68.16
30935;BME280;51033;42.648;23.292;2023-04-09T05:08:28;94042.28;;;5.52;69.96
30935;BME280;51033;42.648;23.292;2023-04-09T05:10:54;94048.75;;;5.98;69.32
30935;BME280;51033;42.648;23.292;2023-04-09T05:13:22;94051.72;;;5.92;69.84
30935;BME280;51033;42.648;23.292;2023-04-09T05:15:48;94058.25;;;5.99;70.04
30935;BME280;51033;42.648;23.292;2023-04-09T05:18:13;94061.09;;;5.74;71.47
30935;BME280;51033;42.648;23.292;2023-04-09T05:20:38;94042.09;;;4.94;74.48
30935;BME280;51033;42.648;23.292;2023-04-09T05:23:04;94070.09;;;4.85;76.15
30935;BME280;51033;42.648;23.292;2023-04-09T05:25:30;94063.09;;;4.50;77.99
30935;BME280;51033;42.648;23.292;2023-04-09T05:27:55;93992.41;;;4.08;78.04
30935;BME280;51033;42.648;23.292;2023-04-09T05:30:21;94026.84;;;4.17;78.49
30935;BME280;51033;42.648;23.292;2023-04-09T05:32:46;94047.94;;;3.97;80.12
30935;BME280;51033;42.648;23.292;2023-04-09T05:35:12;94050.63;;;3.81;80.32
30935;BME280;51033;42.648;23.292;2023-04-09T05:37:37;94062.97;;;3.61;80.81
30935;BME280;51033;42.648;23.292;2023-04-09T05:40:03;94061.94;;;3.47;82.53
30935;BME280;51033;42.648;23.292;2023-04-09T05:42:28;94073.75;;;3.49;82.95
30935;BME280;51033;42.648;23.292;2023-04-09T05:44:54;94050.88;;;3.45;81.99
30935;BME280;51033;42.648;23.292;2023-04-09T05:47:19;94047.97;;;3.26;82.77
30935;BME280;51033;42.648;23.292;2023-04-09T05:49:45;94055.06;;;3.30;83.72
30935;BME280;51033;42.648;23.292;2023-04-09T05:52:10;94024.56;;;3.24;83.20
30935;BME280;51033;42.648;23.292;2023-04-09T05:54:36;94075.59;;;3.64;83.40
30935;BME280;51033;42.648;23.292;2023-04-09T05:57:01;94064.03;;;3.70;82.70
30935;BME280;51033;42.648;23.292;2023-04-09T05:59:26;94054.56;;;3.59;82.85
30935;BME280;51033;42.648;23.292;2023-04-09T06:01:52;94068.75;;;3.98;82.03
30935;BME280;51033;42.648;23.292;2023-04-09T06:04:17;94058.97;;;4.24;81.20
30935;BME280;51033;42.648;23.292;2023-04-09T06:06:43;94052.09;;;4.28;80.92
30935;BME280;51033;42.648;23.292;2023-04-09T06:09:08;94055.28;;;4.35;80.40
30935;BME280;51033;42.648;23.292;2023-04-09T06:11:33;94055.81;;;4.17;80.11
30935;BME280;51033;42.648;23.292;2023-04-09T06:13:59;94068.19;;;4.16;79.51
30935;BME280;51033;42.648;23.292;2023-04-09T06:16:24;94067.13;;;4.22;80.01
30935;BME280;51033;42.648;23.292;2023-04-09T06:18:50;94049.72;;;4.21;79.75
30935;BME280;51033;42.648;23.292;2023-04-09T06:21:18;94063.44;;;4.23;78.92
30935;BME280;51033;42.648;23.292;2023-04-09T06:23:44;94041.84;;;4.16;78.77
30935;BME280;51033;42.648;23.292;2023-04-09T06:26:09;94070.31;;;4.09;78.68
30935;BME280;51033;42.648;23.292;2023-04-09T06:28:35;94064.50;;;4.02;78.89
30935;BME280;51033;42.648;23.292;2023-04-09T06:31:00;94049.25;;;4.14;78.64
30935;BME280;51033;42.648;23.292;2023-04-09T06:33:26;94054.50;;;4.35;78.20
30935;BME280;51033;42.648;23.292;2023-04-09T06:35:51;94070.13;;;4.75;78.50
30935;BME280;51033;42.648;23.292;2023-04-09T06:38:17;94070.66;;;4.77;77.57
30935;BME280;51033;42.648;23.292;2023-04-09T06:40:42;94074.28;;;4.91;76.43
30935;BME280;51033;42.648;23.292;2023-04-09T06:43:08;94055.69;;;5.17;75.45
30935;BME280;51033;42.648;23.292;2023-04-09T06:45:35;94071.66;;;5.35;73.50
30935;BME280;51033;42.648;23.292;2023-04-09T06:48:02;94070.16;;;5.24;72.69
30935;BME280;51033;42.648;23.292;2023-04-09T06:50:27;94081.94;;;5.37;73.23
30935;BME280;51033;42.648;23.292;2023-04-09T06:52:53;94069.97;;;5.49;73.01
30935;BME280;51033;42.648;23.292;2023-04-09T06:55:19;94061.31;;;5.44;72.83
30935;BME280;51033;42.648;23.292;2023-04-09T06:57:45;94066.38;;;5.35;72.01
30935;BME280;51033;42.648;23.292;2023-04-09T07:00:11;94072.97;;;5.38;72.69
30935;BME280;51033;42.648;23.292;2023-04-09T07:02:36;94075.41;;;5.63;72.48
30935;BME280;51033;42.648;23.292;2023-04-09T07:05:02;94080.69;;;5.63;70.60
30935;BME280;51033;42.648;23.292;2023-04-09T07:07:28;94088.56;;;5.68;68.51
30935;BME280;51033;42.648;23.292;2023-04-09T07:09:54;94073.59;;;5.92;68.62
30935;BME280;51033;42.648;23.292;2023-04-09T07:12:33;94077.50;;;6.00;68.44
30935;BME280;51033;42.648;23.292;2023-04-09T07:15:04;94080.13;;;6.05;69.22
30935;BME280;51033;42.648;23.292;2023-04-09T07:17:30;94058.84;;;5.91;68.61
30935;BME280;51033;42.648;23.292;2023-04-09T07:19:56;94067.91;;;5.80;68.25
30935;BME280;51033;42.648;23.292;2023-04-09T07:22:22;94069.69;;;5.90;68.36
30935;BME280;51033;42.648;23.292;2023-04-09T07:24:48;94065.00;;;6.16;68.24
30935;BME280;51033;42.648;23.292;2023-04-09T07:27:24;94043.25;;;6.24;67.94
30935;BME280;51033;42.648;23.292;2023-04-09T07:29:50;94047.78;;;6.18;64.03
30935;BME280;51033;42.648;23.292;2023-04-09T07:32:16;94057.41;;;6.04;63.69
30935;BME280;51033;42.648;23.292;2023-04-09T07:34:44;94078.06;;;6.31;63.66
30935;BME280;51033;42.648;23.292;2023-04-09T07:37:10;93974.00;;;5.45;64.11
30935;BME280;51033;42.648;23.292;2023-04-09T07:39:35;94055.66;;;5.94;65.40
30935;BME280;51033;42.648;23.292;2023-04-09T07:42:02;94078.16;;;6.21;65.18
30935;BME280;51033;42.648;23.292;2023-04-09T07:44:28;94074.31;;;6.32;66.35
30935;BME280;51033;42.648;23.292;2023-04-09T07:46:54;94054.19;;;6.07;66.35
30935;BME280;51033;42.648;23.292;2023-04-09T07:49:19;94057.09;;;5.82;66.65
30935;BME280;51033;42.648;23.292;2023-04-09T07:51:46;94084.06;;;6.02;67.52
30935;BME280;51033;42.648;23.292;2023-04-09T07:54:11;94098.50;;;5.86;67.44
30935;BME280;51033;42.648;23.292;2023-04-09T07:56:37;94071.19;;;5.67;68.01
30935;BME280;51033;42.648;23.292;2023-04-09T07:59:02;94066.66;;;5.34;68.87
30935;BME280;51033;42.648;23.292;2023-04-09T08:01:27;94029.63;;;5.10;69.31
30935;BME280;51033;42.648;23.292;2023-04-09T08:03:53;94076.19;;;5.30;69.74
30935;BME280;51033;42.648;23.292;2023-04-09T08:06:18;94103.28;;;5.40;69.50
30935;BME280;51033;42.648;23.292;2023-04-09T08:08:43;94074.88;;;5.32;69.63
30935;BME280;51033;42.648;23.292;2023-04-09T08:11:09;94072.34;;;5.51;69.40
30935;BME280;51033;42.648;23.292;2023-04-09T08:13:35;94100.25;;;5.62;68.00
30935;BME280;51033;42.648;23.292;2023-04-09T08:16:00;94101.66;;;5.83;67.53
30935;BME280;51033;42.648;23.292;2023-04-09T08:18:26;94085.34;;;5.81;66.91
30935;BME280;51033;42.648;23.292;2023-04-09T08:20:52;94087.69;;;5.83;66.85
30935;BME280;51033;42.648;23.292;2023-04-09T08:23:17;94081.19;;;5.70;66.51
30935;BME280;51033;42.648;23.292;2023-04-09T08:25:43;94082.91;;;5.51;66.31
30935;BME280;51033;42.648;23.292;2023-04-09T08:28:08;94074.03;;;5.37;67.22
30935;BME280;51033;42.648;23.292;2023-04-09T08:30:34;94086.03;;;5.53;68.51
30935;BME280;51033;42.648;23.292;2023-04-09T08:33:00;94069.19;;;5.49;67.38
30935;BME280;51033;42.648;23.292;2023-04-09T08:35:26;94077.66;;;5.46;68.22
30935;BME280;51033;42.648;23.292;2023-04-09T08:37:54;94094.84;;;5.38;68.18
30935;BME280;51033;42.648;23.292;2023-04-09T08:40:20;94091.94;;;5.40;68.02
30935;BME280;51033;42.648;23.292;2023-04-09T08:42:46;94095.47;;;5.25;69.19
30935;BME280;51033;42.648;23.292;2023-04-09T08:45:15;94053.31;;;5.15;69.53
30935;BME280;51033;42.648;23.292;2023-04-09T08:47:42;94041.91;;;5.30;68.56
30935;BME280;51033;42.648;23.292;2023-04-09T08:50:09;94081.81;;;5.57;70.24
30935;BME280;51033;42.648;23.292;2023-04-09T08:52:35;94077.63;;;5.51;68.63
30935;BME280;51033;42.648;23.292;2023-04-09T08:55:01;94081.50;;;5.64;68.39
30935;BME280;51033;42.648;23.292;2023-04-09T08:57:26;94075.22;;;5.16;68.95
30935;BME280;51033;42.648;23.292;2023-04-09T08:59:52;94082.41;;;5.44;68.96
30935;BME280;51033;42.648;23.292;2023-04-09T09:02:17;94087.16;;;5.47;69.39
30935;BME280;51033;42.648;23.292;2023-04-09T09:04:46;94082.44;;;5.39;69.40
30935;BME280;51033;42.648;23.292;2023-04-09T09:07:12;94079.50;;;5.01;69.76
30935;BME280;51033;42.648;23.292;2023-04-09T09:09:51;94077.72;;;5.36;69.71
30935;BME280;51033;42.648;23.292;2023-04-09T09:14:55;94074.91;;;5.22;69.70
30935;BME280;51033;42.648;23.292;2023-04-09T09:17:20;94079.84;;;5.34;70.01
30935;BME280;51033;42.648;23.292;2023-04-09T09:19:45;94073.78;;;5.72;69.37
30935;BME280;51033;42.648;23.292;2023-04-09T09:22:11;94071.75;;;5.93;67.13
30935;BME280;51033;42.648;23.292;2023-04-09T09:24:48;94067.56;;;5.92;66.36
30935;BME280;51033;42.648;23.292;2023-04-09T09:27:33;94077.22;;;5.68;66.07
30935;BME280;51033;42.648;23.292;2023-04-09T09:30:03;94049.75;;;5.40;66.71
30935;BME280;51033;42.648;23.292;2023-04-09T09:32:30;94063.31;;;5.62;66.06
30935;BME280;51033;42.648;23.292;2023-04-09T09:35:04;94060.72;;;5.57;66.12
30935;BME280;51033;42.648;23.292;2023-04-09T09:37:30;94047.97;;;5.64;66.02
30935;BME280;51033;42.648;23.292;2023-04-09T09:39:56;94032.59;;;5.76;64.65
30935;BME280;51033;42.648;23.292;2023-04-09T09:42:22;94048.25;;;5.96;64.47
30935;BME280;51033;42.648;23.292;2023-04-09T09:44:48;94043.72;;;5.97;64.91
30935;BME280;51033;42.648;23.292;2023-04-09T09:47:17;94049.50;;;6.33;64.26
30935;BME280;51033;42.648;23.292;2023-04-09T09:49:43;94035.66;;;6.41;62.81
30935;BME280;51033;42.648;23.292;2023-04-09T09:52:09;94015.16;;;6.33;62.59
30935;BME280;51033;42.648;23.292;2023-04-09T09:54:40;94020.44;;;6.33;62.69
30935;BME280;51033;42.648;23.292;2023-04-09T09:57:09;94028.75;;;6.45;61.97
30935;BME280;51033;42.648;23.292;2023-04-09T09:59:40;94031.91;;;6.47;61.02
30935;BME280;51033;42.648;23.292;2023-04-09T10:02:27;94038.97;;;6.52;61.17
30935;BME280;51033;42.648;23.292;2023-04-09T10:04:59;94041.91;;;6.50;60.98
30935;BME280;51033;42.648;23.292;2023-04-09T10:07:25;94027.34;;;6.53;60.84
30935;BME280;51033;42.648;23.292;2023-04-09T10:09:53;94042.00;;;6.88;60.09
30935;BME280;51033;42.648;23.292;2023-04-09T10:12:21;94051.50;;;6.89;59.31
30935;BME280;51033;42.648;23.292;2023-04-09T10:14:54;94013.81;;;6.59;59.93
30935;BME280;51033;42.648;23.292;2023-04-09T10:17:24;94047.09;;;7.03;59.02
30935;BME280;51033;42.648;23.292;2023-04-09T10:20:10;94041.94;;;6.93;58.67
30935;BME280;51033;42.648;23.292;2023-04-09T10:22:37;94030.63;;;7.06;58.01
30935;BME280;51033;42.648;23.292;2023-04-09T10:25:04;94030.16;;;7.04;58.53
30935;BME280;51033;42.648;23.292;2023-04-09T10:27:30;94037.00;;;7.42;57.11
30935;BME280;51033;42.648;23.292;2023-04-09T10:29:57;94028.19;;;7.09;56.41
30935;BME280;51033;42.648;23.292;2023-04-09T10:32:24;94046.44;;;7.11;56.38
30935;BME280;51033;42.648;23.292;2023-04-09T10:34:55;94039.94;;;7.41;55.30
30935;BME280;51033;42.648;23.292;2023-04-09T10:37:26;94018.91;;;7.49;54.87
30935;BME280;51033;42.648;23.292;2023-04-09T10:39:52;94020.06;;;7.43;53.93
30935;BME280;51033;42.648;23.292;2023-04-09T10:42:23;94022.81;;;7.70;52.76
30935;BME280;51033;42.648;23.292;2023-04-09T10:45:21;94009.63;;;7.84;53.01
30935;BME280;51033;42.648;23.292;2023-04-09T10:47:49;94015.00;;;7.79;51.73
30935;BME280;51033;42.648;23.292;2023-04-09T10:50:24;94002.28;;;7.81;51.64
30935;BME280;51033;42.648;23.292;2023-04-09T10:52:56;94004.34;;;7.98;50.83
30935;BME280;51033;42.648;23.292;2023-04-09T10:55:40;94021.19;;;8.34;52.75
30935;BME280;51033;42.648;23.292;2023-04-09T10:58:10;94014.13;;;8.43;50.08
30935;BME280;51033;42.648;23.292;2023-04-09T11:00:38;94022.19;;;8.52;50.13
30935;BME280;51033;42.648;23.292;2023-04-09T11:05:47;94006.81;;;9.17;49.81
30935;BME280;51033;42.648;23.292;2023-04-09T11:08:15;94010.09;;;8.73;49.33
30935;BME280;51033;42.648;23.292;2023-04-09T11:10:42;93999.38;;;8.92;50.60
30935;BME280;51033;42.648;23.292;2023-04-09T11:13:15;93989.06;;;8.77;49.67
30935;BME280;51033;42.648;23.292;2023-04-09T11:15:43;94000.75;;;8.76;48.88
30935;BME280;51033;42.648;23.292;2023-04-09T11:18:08;93998.34;;;9.15;48.58
30935;BME280;51033;42.648;23.292;2023-04-09T11:20:34;93998.75;;;9.44;48.26
30935;BME280;51033;42.648;23.292;2023-04-09T11:23:00;94009.94;;;9.77;48.71
30935;BME280;51033;42.648;23.292;2023-04-09T11:25:28;93999.22;;;9.24;47.17
30935;BME280;51033;42.648;23.292;2023-04-09T11:27:54;94007.16;;;9.38;47.01
30935;BME280;51033;42.648;23.292;2023-04-09T11:30:20;93988.06;;;9.36;46.98
30935;BME280;51033;42.648;23.292;2023-04-09T11:32:45;93999.53;;;9.09;47.81
30935;BME280;51033;42.648;23.292;2023-04-09T11:35:13;93979.50;;;9.17;48.10
30935;BME280;51033;42.648;23.292;2023-04-09T11:37:39;93991.00;;;9.12;47.76
30935;BME280;51033;42.648;23.292;2023-04-09T11:40:06;93991.59;;;8.95;47.17
30935;BME280;51033;42.648;23.292;2023-04-09T11:42:32;93971.13;;;8.74;47.43
30935;BME280;51033;42.648;23.292;2023-04-09T11:44:58;93988.94;;;9.09;47.99
30935;BME280;51033;42.648;23.292;2023-04-09T11:47:25;93976.34;;;9.01;47.70
30935;BME280;51033;42.648;23.292;2023-04-09T11:49:51;93997.66;;;9.45;49.56
30935;BME280;51033;42.648;23.292;2023-04-09T11:52:17;93978.59;;;9.66;49.66
30935;BME280;51033;42.648;23.292;2023-04-09T11:54:47;94000.94;;;9.65;48.04
30935;BME280;51033;42.648;23.292;2023-04-09T11:57:13;94000.75;;;9.61;48.91
30935;BME280;51033;42.648;23.292;2023-04-09T11:59:39;93982.25;;;9.48;50.73
30935;BME280;51033;42.648;23.292;2023-04-09T12:02:05;93971.97;;;9.32;50.72
30935;BME280;51033;42.648;23.292;2023-04-09T12:04:31;93991.28;;;9.47;51.39
30935;BME280;51033;42.648;23.292;2023-04-09T12:06:56;93985.94;;;9.24;52.11
30935;BME280;51033;42.648;23.292;2023-04-09T12:09:25;93991.88;;;9.66;52.29
30935;BME280;51033;42.648;23.292;2023-04-09T12:11:51;93983.19;;;9.74;50.25
30935;BME280;51033;42.648;23.292;2023-04-09T12:14:18;93967.25;;;9.74;49.72
30935;BME280;51033;42.648;23.292;2023-04-09T12:16:50;93945.25;;;9.29;51.50
30935;BME280;51033;42.648;23.292;2023-04-09T12:19:15;93973.06;;;9.76;48.93
30935;BME280;51033;42.648;23.292;2023-04-09T12:22:07;93983.81;;;9.49;49.23
30935;BME280;51033;42.648;23.292;2023-04-09T12:24:34;93961.47;;;9.72;48.41
30935;BME280;51033;42.648;23.292;2023-04-09T12:27:00;93971.34;;;10.02;47.41
30935;BME280;51033;42.648;23.292;2023-04-09T12:29:26;93945.94;;;10.27;48.41
30935;BME280;51033;42.648;23.292;2023-04-09T12:31:53;93954.38;;;10.60;47.79
30935;BME280;51033;42.648;23.292;2023-04-09T12:34:18;93952.03;;;10.67;46.45
30935;BME280;51033;42.648;23.292;2023-04-09T12:36:46;93950.81;;;10.33;46.52
30935;BME280;51033;42.648;23.292;2023-04-09T12:39:11;93921.50;;;9.77;45.87
30935;BME280;51033;42.648;23.292;2023-04-09T12:41:37;93958.59;;;10.21;45.92
30935;BME280;51033;42.648;23.292;2023-04-09T12:44:02;93950.34;;;10.31;46.48
30935;BME280;51033;42.648;23.292;2023-04-09T12:46:29;93955.38;;;10.02;46.17
30935;BME280;51033;42.648;23.292;2023-04-09T12:48:56;93945.09;;;10.49;46.44
30935;BME280;51033;42.648;23.292;2023-04-09T12:51:22;93952.56;;;10.38;45.33
30935;BME280;51033;42.648;23.292;2023-04-09T12:53:47;93934.22;;;10.28;45.57
30935;BME280;51033;42.648;23.292;2023-04-09T12:56:13;93954.78;;;10.05;44.95
30935;BME280;51033;42.648;23.292;2023-04-09T12:58:38;93935.91;;;10.15;45.62
30935;BME280;51033;42.648;23.292;2023-04-09T13:01:04;93944.66;;;10.55;45.92
30935;BME280;51033;42.648;23.292;2023-04-09T13:03:29;93950.03;;;10.81;44.62
30935;BME280;51033;42.648;23.292;2023-04-09T13:05:55;93928.13;;;10.27;44.82
30935;BME280;51033;42.648;23.292;2023-04-09T13:08:20;93938.34;;;10.03;48.06
30935;BME280;51033;42.648;23.292;2023-04-09T13:10:46;93949.97;;;10.16;45.96
30935;BME280;51033;42.648;23.292;2023-04-09T13:13:11;93932.22;;;10.33;46.12